Time;durP1;ratioP1;P1;durP2;ratioP2;P2;SDS_P1;SDS_P2;PMS_P1;PMS_P2;Temp;Humidity;BMP_temperature;BMP_pressure;BME280_temperature;BME280_humidity;BME280_pressure;Samples;Min_cycle;Max_cycle;Signal;HPM_P1;HPM_P2
2021/06/08 00:02:25;;;;;;;9.58;8.58;;;;;;;14.86;54.37;100372.84;154002;1101;103196;-77
2021/06/08 00:05:30;;;;;;;10.08;8.40;;;;;;;14.81;54.53;100375.22;154039;1093;103149;-80
2021/06/08 00:08:34;;;;;;;10.10;8.23;;;;;;;14.76;54.60;100368.70;154090;1093;103128;-81
2021/06/08 00:11:39;;;;;;;10.13;8.30;;;;;;;14.74;54.83;100368.88;154132;1096;103135;-78
2021/06/08 00:14:44;;;;;;;9.83;8.05;;;;;;;14.70;54.85;100370.25;154172;1101;103200;-84
2021/06/08 00:17:48;;;;;;;9.57;8.50;;;;;;;14.68;54.77;100373.14;154221;1101;103317;-83
2021/06/08 00:20:53;;;;;;;9.17;8.20;;;;;;;14.65;55.09;100367.28;154248;1095;103314;-84
2021/06/08 00:23:57;;;;;;;11.05;8.55;;;;;;;14.61;55.05;100365.96;154010;1101;103221;-85
2021/06/08 00:27:02;;;;;;;9.07;8.13;;;;;;;14.59;55.04;100363.45;154112;1101;103125;-84
2021/06/08 00:30:09;;;;;;;11.03;8.50;;;;;;;14.51;55.03;100364.30;154122;1101;103280;-84
2021/06/08 00:33:13;;;;;;;9.60;8.13;;;;;;;14.46;55.34;100360.47;154082;1102;103146;-87
2021/06/08 00:36:18;;;;;;;8.80;7.90;;;;;;;14.42;54.98;100354.61;154113;1094;103203;-83
2021/06/08 00:39:22;;;;;;;10.93;8.70;;;;;;;14.36;55.40;100359.83;154143;1101;103214;-84
2021/06/08 00:42:31;;;;;;;9.40;8.37;;;;;;;14.31;55.42;100354.99;154148;1096;103196;-83
2021/06/08 00:45:36;;;;;;;9.75;8.43;;;;;;;14.26;55.54;100355.53;154081;1093;103243;-81
2021/06/08 00:48:41;;;;;;;9.33;8.33;;;;;;;14.24;55.40;100354.02;154039;1097;103140;-81
2021/06/08 00:51:45;;;;;;;10.00;8.33;;;;;;;14.17;55.46;100358.43;154070;1101;103161;-83
2021/06/08 00:54:50;;;;;;;10.27;8.73;;;;;;;14.13;55.59;100349.88;154137;1101;103562;-79
2021/06/08 00:57:55;;;;;;;11.80;8.75;;;;;;;14.10;55.71;100351.05;154494;1101;103120;-79
2021/06/08 01:00:59;;;;;;;11.10;8.33;;;;;;;14.03;55.68;100346.55;154096;1093;103124;-80
2021/06/08 01:04:05;;;;;;;9.50;8.33;;;;;;;13.96;55.87;100346.42;153984;1101;103198;-80
2021/06/08 01:07:10;;;;;;;10.50;8.38;;;;;;;13.93;55.90;100354.80;154089;1093;103190;-80
2021/06/08 01:10:15;;;;;;;9.83;8.83;;;;;;;13.89;55.68;100350.80;153998;1097;104172;-79
2021/06/08 01:13:21;;;;;;;12.90;9.43;;;;;;;13.87;55.93;100352.81;153973;1101;103116;-79
2021/06/08 01:16:26;;;;;;;9.45;8.45;;;;;;;13.85;56.17;100354.83;153963;1101;103222;-77
2021/06/08 01:19:30;;;;;;;10.40;8.20;;;;;;;13.78;55.83;100345.79;154217;1101;103167;-80
2021/06/08 01:22:35;;;;;;;9.05;8.13;;;;;;;13.75;56.20;100355.85;154302;1101;103192;-81
2021/06/08 01:25:40;;;;;;;10.70;8.83;;;;;;;13.72;55.92;100349.99;154185;1101;103129;-80
2021/06/08 01:28:46;;;;;;;10.10;8.70;;;;;;;13.72;56.22;100349.99;154030;1101;103193;-82
2021/06/08 01:31:57;;;;;;;11.28;9.10;;;;;;;13.69;56.19;100353.86;153988;1097;103344;-82
2021/06/08 01:35:02;;;;;;;10.90;9.70;;;;;;;13.68;56.26;100354.03;154042;1101;103147;-82
2021/06/08 01:38:06;;;;;;;10.10;8.90;;;;;;;13.61;56.31;100339.66;154032;1101;103563;-79
2021/06/08 01:41:13;;;;;;;10.90;9.20;;;;;;;13.55;56.27;100346.53;153953;1095;103569;-81
2021/06/08 01:44:18;;;;;;;9.33;8.35;;;;;;;13.50;56.66;100343.52;153980;1093;104645;-81
2021/06/08 01:47:23;;;;;;;12.23;8.93;;;;;;;13.46;56.42;100344.87;154017;1097;103194;-78
2021/06/08 01:50:28;;;;;;;10.93;9.00;;;;;;;13.41;56.81;100349.89;154031;1093;103198;-80
2021/06/08 01:53:40;;;;;;;9.90;8.90;;;;;;;13.37;56.42;100352.06;154020;1093;103133;-81
2021/06/08 01:56:48;;;;;;;12.20;9.00;;;;;;;13.35;56.38;100354.91;153990;1095;103200;-80
2021/06/08 02:00:01;;;;;;;10.00;8.93;;;;;;;13.31;56.13;100356.25;154166;1101;103131;-83
2021/06/08 02:03:13;;;;;;;9.40;8.40;;;;;;;13.25;56.70;100356.90;154087;1101;103304;-81
2021/06/08 02:06:31;;;;;;;9.70;8.70;;;;;;;13.26;56.42;100355.91;154124;1101;103192;-84
2021/06/08 02:09:42;;;;;;;12.30;8.30;;;;;;;13.19;56.41;100352.22;154188;1101;103099;-84
2021/06/08 02:13:03;;;;;;;11.50;9.33;;;;;;;13.13;56.77;100359.08;154202;1097;103521;-83
2021/06/08 02:16:14;;;;;;;11.23;9.13;;;;;;;13.12;56.55;100360.07;154153;1101;103192;-87
2021/06/08 02:19:23;;;;;;;10.40;9.00;;;;;;;13.10;56.46;100363.93;154039;1101;103128;-85
2021/06/08 02:22:30;;;;;;;10.33;9.20;;;;;;;13.11;56.65;100365.63;154516;1101;103133;-83
2021/06/08 02:25:35;;;;;;;11.73;9.03;;;;;;;13.10;56.73;100363.93;154160;1101;103131;-85
2021/06/08 02:28:41;;;;;;;10.10;8.90;;;;;;;13.08;57.34;100365.94;154551;1093;103099;-85
2021/06/08 02:31:48;;;;;;;11.90;9.13;;;;;;;13.07;57.19;100365.11;154045;1101;103129;-85
2021/06/08 02:34:54;;;;;;;10.00;8.98;;;;;;;13.08;57.63;100373.98;154061;1096;103506;-84
2021/06/08 02:37:59;;;;;;;8.93;7.87;;;;;;;13.06;57.44;100360.75;154120;1101;103219;-87
2021/06/08 02:41:07;;;;;;;9.35;7.38;;;;;;;13.08;56.90;100369.45;154470;1101;103099;-86
2021/06/08 02:44:12;;;;;;;8.63;7.73;;;;;;;13.14;57.68;100362.59;154142;1101;103145;-85
2021/06/08 02:47:18;;;;;;;9.60;8.60;;;;;;;13.19;57.28;100362.94;154099;1093;103557;-81
2021/06/08 02:50:24;;;;;;;9.80;8.25;;;;;;;13.25;56.96;100364.11;154186;1101;103222;-77
2021/06/08 02:53:29;;;;;;;9.33;8.33;;;;;;;13.28;57.09;100364.62;154095;1101;103100;-82
2021/06/08 02:56:35;;;;;;;10.60;8.97;;;;;;;13.31;57.23;100366.14;153981;1101;103200;-76
2021/06/08 02:59:42;;;;;;;9.70;8.70;;;;;;;13.29;57.32;100371.63;154199;1101;103190;-77
2021/06/08 03:02:51;;;;;;;10.45;8.13;;;;;;;13.33;57.36;100373.00;153998;1101;103135;-76
2021/06/08 03:06:04;;;;;;;10.53;8.80;;;;;;;13.35;57.16;100379.02;154708;1096;103125;-76
2021/06/08 03:09:12;;;;;;;10.33;8.90;;;;;;;13.40;57.58;100380.39;154736;1101;103186;-76
2021/06/08 03:12:20;;;;;;;10.00;8.78;;;;;;;13.52;57.55;100374.50;154288;1101;103148;-76
2021/06/08 03:15:29;;;;;;;12.13;9.18;;;;;;;13.73;57.37;100382.01;154156;1101;103196;-75
2021/06/08 03:18:35;;;;;;;10.60;9.00;;;;;;;13.99;57.30;100378.28;154185;1101;103597;-77
2021/06/08 03:21:42;;;;;;;10.20;8.87;;;;;;;14.24;56.98;100379.02;154179;1093;103271;-76
2021/06/08 03:24:53;;;;;;;11.53;9.05;;;;;;;14.49;57.02;100382.44;154212;1101;103216;-75
2021/06/08 03:28:00;;;;;;;12.37;9.20;;;;;;;14.75;56.94;100386.68;154303;1093;103190;-77
2021/06/08 03:31:05;;;;;;;12.33;9.43;;;;;;;15.08;56.96;100391.83;154380;1097;103138;-78
2021/06/08 03:34:15;;;;;;;10.43;9.33;;;;;;;15.38;56.55;100384.72;154448;1101;103227;-78
2021/06/08 03:37:22;;;;;;;10.80;9.57;;;;;;;15.65;56.80;100398.59;154377;1101;103217;-75
2021/06/08 03:40:27;;;;;;;10.73;9.57;;;;;;;15.90;56.69;100394.66;154294;1093;103128;-76
2021/06/08 03:43:33;;;;;;;9.90;8.90;;;;;;;16.17;56.46;100402.30;154081;1093;103123;-76
2021/06/08 03:46:38;;;;;;;10.57;8.80;;;;;;;16.42;56.27;100400.14;154209;1101;103214;-76
2021/06/08 03:49:43;;;;;;;10.20;9.20;;;;;;;16.66;56.53;100398.96;154151;1101;103143;-75
2021/06/08 03:52:50;;;;;;;9.33;8.43;;;;;;;16.86;56.43;100396.55;154092;1101;103270;-77
2021/06/08 03:55:55;;;;;;;9.90;8.90;;;;;;;17.04;56.09;100399.62;154302;1101;103128;-76
2021/06/08 03:59:00;;;;;;;11.13;9.40;;;;;;;17.26;56.15;100407.70;154062;1093;103576;-76
2021/06/08 04:02:06;;;;;;;9.78;8.73;;;;;;;17.44;56.24;100397.30;154081;1101;103226;-75
2021/06/08 04:05:12;;;;;;;12.60;9.27;;;;;;;17.58;55.93;100395.53;154049;1101;103135;-76
2021/06/08 04:08:17;;;;;;;9.33;8.20;;;;;;;17.72;55.78;100401.04;154243;1096;103333;-76
2021/06/08 04:11:22;;;;;;;12.35;8.90;;;;;;;17.85;55.72;100406.56;154453;1101;103151;-76
2021/06/08 04:14:28;;;;;;;11.93;8.70;;;;;;;17.96;55.71;100407.89;154304;1093;103125;-77
2021/06/08 04:17:34;;;;;;;10.90;8.47;;;;;;;18.08;55.54;100405.47;154353;1097;103125;-78
2021/06/08 04:20:39;;;;;;;26.97;10.27;;;;;;;18.21;55.57;100397.45;154016;1093;103053;-74
2021/06/08 04:23:44;;;;;;;8.65;7.75;;;;;;;18.39;55.47;100396.91;153914;1101;103257;-74
2021/06/08 04:26:48;;;;;;;9.88;8.88;;;;;;;18.48;54.84;100392.17;153984;1101;103161;-74
2021/06/08 04:29:53;;;;;;;11.20;8.65;;;;;;;18.52;54.79;100393.43;153922;1101;103152;-75
2021/06/08 04:32:58;;;;;;;9.68;8.15;;;;;;;18.62;54.78;100396.58;153939;1093;103496;-75
2021/06/08 04:36:02;;;;;;;11.80;8.27;;;;;;;18.55;54.72;100391.16;153967;1101;103198;-74
2021/06/08 04:39:07;;;;;;;10.57;8.60;;;;;;;18.59;54.66;100392.42;153951;1093;103740;-75
2021/06/08 04:42:14;;;;;;;8.87;7.97;;;;;;;18.60;54.59;100393.25;153993;1101;103122;-76
2021/06/08 04:45:19;;;;;;;9.25;8.13;;;;;;;18.65;54.67;100388.08;153944;1101;103218;-76
2021/06/08 04:48:24;;;;;;;8.55;7.65;;;;;;;18.70;54.28;100392.86;153980;1101;103196;-75
2021/06/08 04:51:29;;;;;;;9.65;7.90;;;;;;;18.64;53.96;100399.91;153953;1096;103138;-76
2021/06/08 04:54:35;;;;;;;12.40;8.67;;;;;;;18.56;54.11;100398.22;153911;1096;103349;-76
2021/06/08 04:57:40;;;;;;;9.48;8.33;;;;;;;18.47;54.39;100399.42;154000;1101;103567;-76
2021/06/08 05:00:56;;;;;;;9.07;8.17;;;;;;;18.48;54.43;100400.28;153945;1095;103200;-76
2021/06/08 05:04:03;;;;;;;10.08;8.68;;;;;;;18.56;54.63;100397.39;154006;1101;103115;-75
2021/06/08 05:07:10;;;;;;;9.53;8.45;;;;;;;18.67;54.52;100399.52;153926;1101;103128;-76
2021/06/08 05:10:17;;;;;;;9.30;8.05;;;;;;;18.82;54.47;100396.66;153971;1101;103198;-76
2021/06/08 05:13:26;;;;;;;10.90;8.67;;;;;;;18.98;54.01;100395.47;153989;1101;103146;-76
2021/06/08 05:16:32;;;;;;;11.85;8.23;;;;;;;18.98;54.19;100395.47;153972;1096;103528;-76
2021/06/08 05:19:37;;;;;;;9.15;8.23;;;;;;;18.90;53.86;100393.80;154009;1093;103129;-75
2021/06/08 05:22:43;;;;;;;9.47;8.20;;;;;;;18.87;54.07;100390.66;153989;1097;103200;-76
2021/06/08 05:25:52;;;;;;;9.80;8.80;;;;;;;18.86;54.05;100397.09;153997;1101;103214;-76
2021/06/08 05:28:58;;;;;;;10.73;8.53;;;;;;;18.83;54.08;100399.17;153994;1101;103134;-77
2021/06/08 05:32:03;;;;;;;10.37;8.40;;;;;;;18.89;54.23;100402.10;153911;1101;103141;-76
2021/06/08 05:35:10;;;;;;;9.95;8.10;;;;;;;19.03;54.45;100395.67;153936;1101;103193;-76
2021/06/08 05:38:15;;;;;;;9.40;8.40;;;;;;;19.19;54.29;100397.17;154023;1101;103195;-76
2021/06/08 05:41:19;;;;;;;10.48;8.48;;;;;;;19.32;54.29;100390.92;153914;1096;103228;-75
2021/06/08 05:44:24;;;;;;;9.25;8.00;;;;;;;19.40;53.55;100402.39;153963;1093;103139;-76
2021/06/08 05:47:28;;;;;;;9.45;8.13;;;;;;;19.36;54.11;100398.44;153944;1096;103199;-76
2021/06/08 05:50:33;;;;;;;9.13;7.75;;;;;;;19.37;54.06;100391.97;153920;1101;103154;-76
2021/06/08 05:53:41;;;;;;;10.40;8.10;;;;;;;19.43;53.75;100393.84;153969;1101;103130;-76
2021/06/08 05:56:46;;;;;;;9.13;8.20;;;;;;;19.49;53.55;100403.00;153982;1093;103290;-75
2021/06/08 05:59:51;;;;;;;11.20;8.80;;;;;;;19.49;53.62;100396.77;154007;1096;103202;-76
2021/06/08 06:02:57;;;;;;;9.20;8.23;;;;;;;19.52;53.53;100405.30;153929;1096;103118;-76
2021/06/08 06:06:02;;;;;;;12.70;9.10;;;;;;;19.53;54.02;100404.25;153951;1101;103114;-77
2021/06/08 06:09:07;;;;;;;12.38;8.98;;;;;;;19.45;53.65;100409.88;153970;1101;103128;-76
2021/06/08 06:12:15;;;;;;;10.55;8.78;;;;;;;19.35;53.43;100391.34;153951;1101;103187;-76
2021/06/08 06:15:21;;;;;;;9.75;8.75;;;;;;;19.36;53.81;100394.88;153942;1101;103209;-76
2021/06/08 06:18:26;;;;;;;11.40;8.20;;;;;;;19.33;53.79;100414.25;154005;1101;103126;-76
2021/06/08 06:21:31;;;;;;;10.27;8.13;;;;;;;19.36;53.78;100414.67;153936;1097;103196;-76
2021/06/08 06:24:36;;;;;;;8.53;7.63;;;;;;;19.40;53.65;100398.86;154025;1095;103519;-77
2021/06/08 06:27:43;;;;;;;8.80;7.83;;;;;;;19.41;53.51;100401.33;153940;1101;103300;-76
2021/06/08 06:30:48;;;;;;;9.85;7.50;;;;;;;19.37;53.68;100399.27;153938;1101;103129;-76
2021/06/08 06:33:56;;;;;;;8.48;7.55;;;;;;;19.49;53.69;100399.47;153951;1101;103205;-75
2021/06/08 06:37:03;;;;;;;8.68;7.78;;;;;;;19.59;53.60;100402.58;153945;1101;103133;-76
2021/06/08 06:40:12;;;;;;;9.70;8.13;;;;;;;19.64;53.43;100410.09;153984;1101;103094;-77
2021/06/08 06:43:24;;;;;;;8.58;7.08;;;;;;;19.65;53.46;100401.77;153998;1094;103365;-77
2021/06/08 06:46:33;;;;;;;9.00;7.80;;;;;;;19.72;53.55;100410.73;153978;1095;103198;-77
2021/06/08 06:49:39;;;;;;;10.43;8.53;;;;;;;19.72;53.71;100408.02;153949;1101;103123;-76
2021/06/08 06:52:55;;;;;;;9.20;8.20;;;;;;;19.74;53.25;100403.23;153950;1097;104044;-76
2021/06/08 06:56:00;;;;;;;10.28;7.50;;;;;;;19.70;53.57;100410.08;154003;1095;103200;-76
2021/06/08 06:59:07;;;;;;;10.00;8.33;;;;;;;19.70;53.80;100401.95;153939;1101;103228;-76
2021/06/08 07:02:18;;;;;;;10.53;7.58;;;;;;;19.77;54.28;100397.41;153965;1101;103202;-75
2021/06/08 07:05:26;;;;;;;8.93;7.58;;;;;;;19.93;54.09;100401.54;153960;1093;103104;-75
2021/06/08 07:08:33;;;;;;;8.98;7.93;;;;;;;20.04;52.94;100404.66;153919;1101;103492;-76
2021/06/08 07:11:38;;;;;;;11.67;7.70;;;;;;;19.98;53.89;100401.75;153986;1093;103192;-76
2021/06/08 07:14:44;;;;;;;11.03;8.00;;;;;;;20.11;54.31;100410.88;153949;1101;103579;-75
2021/06/08 07:17:49;;;;;;;7.95;7.15;;;;;;;20.19;54.18;100400.66;154013;1101;103212;-76
2021/06/08 07:20:54;;;;;;;8.73;7.58;;;;;;;20.30;54.16;100407.28;153995;1101;103128;-75
2021/06/08 07:24:00;;;;;;;9.70;7.38;;;;;;;20.33;53.75;100406.86;153955;1096;103731;-76
2021/06/08 07:27:06;;;;;;;8.58;6.60;;;;;;;20.47;54.14;100409.53;154046;1101;103141;-77
2021/06/08 07:30:13;;;;;;;9.25;6.78;;;;;;;20.53;53.31;100409.48;153991;1101;103541;-76
2021/06/08 07:33:27;;;;;;;9.88;6.63;;;;;;;20.58;53.06;100409.69;153977;1101;103136;-76
2021/06/08 07:36:39;;;;;;;7.33;6.63;;;;;;;20.63;52.77;100408.23;153945;1101;103309;-76
2021/06/08 07:39:49;;;;;;;8.07;6.60;;;;;;;20.66;52.94;100416.77;153942;1101;103153;-76
2021/06/08 07:42:57;;;;;;;10.30;6.87;;;;;;;20.76;52.83;100413.59;153968;1096;103128;-76
2021/06/08 07:46:05;;;;;;;10.37;6.53;;;;;;;20.85;53.04;100408.77;153956;1101;103378;-76
2021/06/08 07:49:11;;;;;;;8.15;6.80;;;;;;;20.97;52.55;100415.16;154006;1101;103130;-76
2021/06/08 07:52:19;;;;;;;7.08;6.38;;;;;;;21.05;53.03;100403.21;153947;1101;103195;-76
2021/06/08 07:55:24;;;;;;;7.40;6.40;;;;;;;21.19;52.87;100412.94;153958;1101;103072;-75
2021/06/08 07:58:28;;;;;;;8.78;5.85;;;;;;;21.29;52.81;100413.28;154025;1096;103247;-76
2021/06/08 08:01:34;;;;;;;7.33;6.63;;;;;;;21.37;52.58;100418.43;153940;1101;103260;-76
2021/06/08 08:04:48;;;;;;;8.30;6.35;;;;;;;21.41;52.07;100424.25;153984;1101;103502;-77
2021/06/08 08:07:53;;;;;;;8.63;6.10;;;;;;;21.48;52.50;100411.50;153962;1101;103024;-77
2021/06/08 08:10:58;;;;;;;8.10;6.30;;;;;;;21.61;52.24;100420.58;153911;1101;103181;-77
2021/06/08 08:14:04;;;;;;;11.23;6.80;;;;;;;21.73;52.27;100424.25;153988;1093;103115;-76
2021/06/08 08:17:09;;;;;;;6.77;6.07;;;;;;;21.80;52.10;100419.56;154015;1101;103301;-76
2021/06/08 08:20:16;;;;;;;7.20;6.10;;;;;;;21.87;52.02;100420.34;153951;1095;103129;-76
2021/06/08 08:23:21;;;;;;;7.07;5.73;;;;;;;21.94;52.05;100417.55;153935;1094;103120;-76
2021/06/08 08:26:26;;;;;;;7.73;5.67;;;;;;;22.04;51.99;100408.91;153969;1101;103227;-75
2021/06/08 08:29:31;;;;;;;6.90;6.00;;;;;;;22.15;51.88;100408.13;153982;1093;103125;-76
2021/06/08 08:32:35;;;;;;;9.58;6.53;;;;;;;22.20;51.29;100416.45;153934;1101;103210;-76
2021/06/08 08:35:40;;;;;;;6.83;5.93;;;;;;;22.23;51.50;100405.14;153982;1095;103199;-76
2021/06/08 08:38:45;;;;;;;7.93;5.73;;;;;;;22.33;51.24;100413.62;153932;1101;103181;-76
2021/06/08 08:41:52;;;;;;;5.83;4.65;;;;;;;22.37;49.90;100407.73;153947;1101;103131;-76
2021/06/08 08:44:57;;;;;;;6.55;4.78;;;;;;;22.46;49.85;100417.22;153939;1101;103117;-76
2021/06/08 08:48:02;;;;;;;6.63;4.47;;;;;;;22.58;49.75;100417.31;153949;1093;103244;-77
2021/06/08 08:51:07;;;;;;;6.33;4.50;;;;;;;22.60;50.00;100407.04;153951;1101;103662;-76
2021/06/08 08:54:13;;;;;;;5.48;4.53;;;;;;;22.70;49.77;100408.14;153925;1101;103195;-77
2021/06/08 08:57:20;;;;;;;9.38;4.35;;;;;;;22.76;48.94;100402.84;153984;1093;103203;-76
2021/06/08 09:00:27;;;;;;;9.05;3.90;;;;;;;22.83;47.62;100406.31;154015;1101;103134;-77
2021/06/08 09:03:32;;;;;;;4.20;3.20;;;;;;;22.94;47.27;100400.91;153995;1097;103317;-76
2021/06/08 09:06:37;;;;;;;8.73;4.30;;;;;;;22.96;45.55;100406.13;154023;1101;103306;-77
2021/06/08 09:09:42;;;;;;;8.25;3.40;;;;;;;22.99;47.48;100393.94;153976;1096;103292;-77
2021/06/08 09:12:46;;;;;;;6.93;3.93;;;;;;;23.06;47.14;100395.54;153937;1101;103199;-77
2021/06/08 09:15:51;;;;;;;5.17;3.50;;;;;;;23.15;47.38;100397.92;153953;1101;103182;-76
2021/06/08 09:18:56;;;;;;;4.00;3.40;;;;;;;23.25;47.54;100393.58;153955;1095;103317;-75
2021/06/08 09:22:01;;;;;;;5.68;3.55;;;;;;;23.35;46.96;100394.91;154006;1101;103131;-77
2021/06/08 09:25:08;;;;;;;4.67;3.43;;;;;;;23.40;46.77;100395.02;153911;1101;103053;-76
2021/06/08 09:28:28;;;;;;;4.33;3.33;;;;;;;23.45;46.13;100395.14;154012;1093;103199;-74
2021/06/08 09:31:33;;;;;;;4.27;3.47;;;;;;;23.39;45.98;100394.19;153966;1094;103022;-76
2021/06/08 09:34:37;;;;;;;4.13;3.73;;;;;;;23.48;45.97;100390.06;153994;1101;103191;-77
2021/06/08 09:37:44;;;;;;;3.85;3.20;;;;;;;23.56;46.31;100394.33;153979;1093;103124;-76
2021/06/08 09:40:49;;;;;;;3.70;3.40;;;;;;;23.65;45.72;100394.80;154000;1101;103113;-76
2021/06/08 09:44:02;;;;;;;3.95;3.30;;;;;;;23.80;45.80;100395.19;154002;1093;103194;-77
2021/06/08 09:47:07;;;;;;;4.45;3.10;;;;;;;23.91;45.09;100385.36;153989;1101;103132;-76
2021/06/08 09:50:35;;;;;;;3.57;3.00;;;;;;;24.05;45.47;100388.66;153937;1101;103218;-76
2021/06/08 09:53:40;;;;;;;3.57;2.97;;;;;;;24.14;45.28;100384.50;154001;1094;103190;-77
2021/06/08 09:56:45;;;;;;;4.87;3.00;;;;;;;24.23;45.21;100390.39;153959;1101;103104;-75
2021/06/08 09:59:55;;;;;;;3.93;3.30;;;;;;;24.30;43.97;100382.92;153951;1093;103141;-77
2021/06/08 10:03:00;;;;;;;3.70;3.28;;;;;;;24.35;44.29;100382.22;153998;1097;103195;-77
2021/06/08 10:06:13;;;;;;;3.63;3.00;;;;;;;24.37;44.29;100385.53;153921;1096;103134;-76
2021/06/08 10:09:17;;;;;;;5.23;3.48;;;;;;;24.42;43.41;100383.73;154005;1093;103195;-75
2021/06/08 10:12:22;;;;;;;5.37;3.70;;;;;;;24.48;42.72;100384.64;153945;1101;103195;-76
2021/06/08 10:15:28;;;;;;;8.03;3.90;;;;;;;24.53;42.94;100390.23;153963;1101;103214;-77
2021/06/08 10:18:45;;;;;;;4.47;3.30;;;;;;;24.55;44.19;100377.19;153991;1097;103184;-77
2021/06/08 10:21:52;;;;;;;4.43;3.27;;;;;;;24.85;43.92;100387.05;153952;1096;103267;-76
2021/06/08 10:24:56;;;;;;;3.70;3.40;;;;;;;24.99;43.16;100382.92;153984;1101;103122;-76
2021/06/08 10:28:01;;;;;;;3.40;3.10;;;;;;;25.15;43.84;100380.46;153946;1096;103164;-76
2021/06/08 10:31:08;;;;;;;4.90;3.30;;;;;;;25.21;41.38;100376.73;153953;1101;103247;-76
2021/06/08 10:34:13;;;;;;;3.50;3.20;;;;;;;25.34;43.29;100373.71;154011;1101;103129;-76
2021/06/08 10:37:19;;;;;;;5.60;3.47;;;;;;;25.52;42.67;100371.80;153958;1097;103266;-77
2021/06/08 10:40:24;;;;;;;3.80;3.40;;;;;;;25.69;42.40;100364.41;153963;1097;103128;-76
2021/06/08 10:43:33;;;;;;;4.28;3.13;;;;;;;25.91;42.64;100360.92;153940;1097;103118;-76
2021/06/08 10:46:44;;;;;;;3.43;3.13;;;;;;;26.01;41.13;100372.02;153966;1101;103257;-77
2021/06/08 10:49:52;;;;;;;6.48;3.50;;;;;;;26.02;39.98;100365.45;153915;1095;103202;-76
2021/06/08 10:52:58;;;;;;;3.43;3.13;;;;;;;25.88;41.86;100369.61;153985;1096;103283;-77
2021/06/08 10:56:22;;;;;;;3.38;3.00;;;;;;;25.97;41.94;100357.20;153975;1096;103217;-76
2021/06/08 10:59:38;;;;;;;3.43;3.13;;;;;;;26.01;41.57;100355.61;153946;1096;103125;-76
2021/06/08 11:02:49;;;;;;;4.78;3.58;;;;;;;26.21;41.12;100357.77;154047;1101;103191;-76
2021/06/08 11:05:58;;;;;;;3.60;3.13;;;;;;;26.48;40.99;100357.81;153961;1096;103164;-76
2021/06/08 11:09:08;;;;;;;7.53;3.23;;;;;;;26.68;39.60;100353.70;154001;1097;103195;-77
2021/06/08 11:12:26;;;;;;;7.90;3.23;;;;;;;26.70;40.72;100343.32;154005;1100;103048;-77
2021/06/08 11:15:32;;;;;;;4.20;2.80;;;;;;;26.82;41.00;100357.66;153966;1101;103145;-76
2021/06/08 11:18:42;;;;;;;5.50;5.00;;;;;;;26.62;38.58;100355.56;153941;1095;103131;-76
2021/06/08 11:21:57;;;;;;;10.10;7.25;;;;;;;26.38;40.07;100352.23;153963;1097;103132;-76
2021/06/08 11:25:03;;;;;;;5.40;3.95;;;;;;;26.37;40.48;100351.41;153931;1096;103187;-76
2021/06/08 11:28:11;;;;;;;3.73;3.37;;;;;;;26.44;39.92;100353.94;153966;1096;103194;-76
2021/06/08 11:31:18;;;;;;;4.00;3.20;;;;;;;26.41;40.12;100352.55;153989;1101;103471;-76
2021/06/08 11:34:27;;;;;;;6.17;3.13;;;;;;;26.44;40.23;100346.58;153964;1097;103470;-76
2021/06/08 11:37:58;;;;;;;11.83;3.35;;;;;;;26.61;39.95;100341.02;153971;1096;103196;-76
2021/06/08 11:41:12;;;;;;;3.07;2.77;;;;;;;26.83;40.09;100337.43;153997;1101;103293;-77
2021/06/08 11:44:23;;;;;;;4.43;3.13;;;;;;;26.85;39.15;100329.78;153968;1101;103194;-74
2021/06/08 11:47:35;;;;;;;;;;;;;;;26.76;39.06;100334.07;154002;1101;103468;-75
2021/06/08 11:50:45;;;;;;;3.63;3.23;;;;;;;26.49;38.99;100332.12;153910;1101;103147;-75
2021/06/08 11:54:00;;;;;;;5.57;3.40;;;;;;;26.35;39.75;100337.16;154018;1097;103196;-75
2021/06/08 11:57:07;;;;;;;4.00;3.30;;;;;;;26.41;39.86;100338.05;153979;1093;103256;-76
2021/06/08 12:00:13;;;;;;;4.40;3.50;;;;;;;26.57;39.86;100334.38;153943;1101;103155;-76
2021/06/08 12:03:30;;;;;;;4.93;3.80;;;;;;;26.48;38.54;100329.63;153992;1097;103205;-76
2021/06/08 12:07:09;;;;;;;3.50;3.20;;;;;;;26.27;38.50;100334.89;153986;1101;103198;-75
2021/06/08 12:10:17;;;;;;;3.50;2.93;;;;;;;26.17;38.60;100330.09;153973;1101;103144;-75
2021/06/08 12:13:29;;;;;;;5.03;3.57;;;;;;;26.25;38.80;100323.34;153957;1101;103264;-76
2021/06/08 12:16:34;;;;;;;5.17;2.93;;;;;;;26.33;39.20;100317.45;153970;1101;103128;-75
2021/06/08 12:19:39;;;;;;;3.37;3.07;;;;;;;26.38;38.75;100308.46;153947;1101;103579;-76
2021/06/08 12:22:43;;;;;;;5.90;3.30;;;;;;;26.49;38.79;100318.44;153927;1095;103133;-75
2021/06/08 12:25:48;;;;;;;5.33;3.70;;;;;;;26.34;38.74;100312.80;153971;1101;103192;-75
2021/06/08 12:29:08;;;;;;;4.70;3.60;;;;;;;26.13;38.87;100307.08;153907;1094;103265;-75
2021/06/08 12:32:16;;;;;;;3.85;3.25;;;;;;;25.83;39.14;100296.58;154032;1101;103131;-76
2021/06/08 12:35:32;;;;;;;5.50;3.05;;;;;;;25.83;39.40;100300.13;153916;1097;103221;-76
2021/06/08 12:38:44;;;;;;;3.43;2.73;;;;;;;25.99;38.89;100294.89;153940;1101;103135;-77
2021/06/08 12:41:49;;;;;;;4.83;3.30;;;;;;;26.18;38.80;100290.73;153971;1093;103107;-76
2021/06/08 12:44:54;;;;;;;6.30;4.20;;;;;;;26.34;38.63;100296.38;153908;1101;103285;-76
2021/06/08 12:47:59;;;;;;;5.88;3.55;;;;;;;26.29;37.31;100286.22;153990;1101;103320;-76
2021/06/08 12:51:13;;;;;;;4.20;2.90;;;;;;;26.27;37.82;100284.80;153958;1101;103308;-75
2021/06/08 12:54:31;;;;;;;3.10;2.80;;;;;;;26.37;37.94;100283.02;153967;1101;103203;-76
2021/06/08 12:57:36;;;;;;;4.18;2.93;;;;;;;26.49;37.71;100282.86;154056;1097;103202;-76
2021/06/08 13:00:43;;;;;;;4.23;2.87;;;;;;;26.54;37.58;100285.66;153953;1096;103298;-76
2021/06/08 13:03:49;;;;;;;3.13;2.83;;;;;;;26.62;36.92;100276.19;154020;1101;103131;-76
2021/06/08 13:06:59;;;;;;;6.13;3.10;;;;;;;26.56;37.20;100278.02;153926;1097;103129;-76
2021/06/08 13:10:07;;;;;;;7.28;3.10;;;;;;;26.48;36.69;100280.38;153954;1101;103184;-76
2021/06/08 13:13:14;;;;;;;3.78;3.25;;;;;;;26.38;37.21;100278.37;154025;1101;103225;-76
2021/06/08 13:16:35;;;;;;;4.57;2.97;;;;;;;26.38;36.92;100276.45;153980;1095;103100;-76
2021/06/08 13:19:40;;;;;;;5.23;3.50;;;;;;;26.36;36.43;100277.80;153993;1101;103104;-75
2021/06/08 13:22:45;;;;;;;5.87;2.87;;;;;;;26.36;36.73;100272.33;153963;1101;103128;-76
2021/06/08 13:26:05;;;;;;;3.30;3.00;;;;;;;26.36;37.28;100266.86;153959;1101;103104;-76
2021/06/08 13:29:18;;;;;;;3.90;3.07;;;;;;;26.48;36.99;100262.05;154040;1101;103124;-76
2021/06/08 13:32:26;;;;;;;3.25;2.98;;;;;;;26.57;37.19;100257.77;153971;1101;103547;-76
2021/06/08 13:35:34;;;;;;;3.33;2.80;;;;;;;26.66;37.24;100260.90;153981;1101;103163;-76
2021/06/08 13:38:39;;;;;;;4.23;2.90;;;;;;;26.79;36.51;100259.62;153955;1101;103126;-76
2021/06/08 13:41:45;;;;;;;4.13;2.88;;;;;;;26.81;37.10;100258.30;154095;1101;103120;-76
2021/06/08 13:45:01;;;;;;;3.33;2.95;;;;;;;26.88;36.56;100268.20;153991;1102;103601;-76
2021/06/08 13:48:33;;;;;;;5.70;2.90;;;;;;;26.96;37.05;100254.83;154102;1101;103120;-76
2021/06/08 13:51:38;;;;;;;3.40;2.80;;;;;;;26.95;36.45;100252.38;153993;1101;103162;-76
2021/06/08 13:54:43;;;;;;;3.47;2.87;;;;;;;26.85;36.54;100253.13;154202;1096;103139;-76
2021/06/08 14:00:17;;;;;;;5.07;3.10;;;;;;;26.87;35.41;100245.47;154032;1101;103131;-76
2021/06/08 14:01:13;;;;;;;6.90;3.50;;;;;;;26.89;34.99;100248.77;154436;1101;103195;-76
2021/06/08 14:04:20;;;;;;;3.90;2.70;;;;;;;26.89;34.65;100251.52;154351;1097;103136;-76
2021/06/08 14:07:31;;;;;;;3.25;2.60;;;;;;;26.92;35.56;100247.41;154315;1101;103131;-76
2021/06/08 14:10:36;;;;;;;9.30;3.23;;;;;;;26.99;35.08;100243.36;154237;1101;103198;-76